Time;durP1;ratioP1;P1;durP2;ratioP2;P2;SDS_P1;SDS_P2;PMS_P1;PMS_P2;Temp;Humidity;BMP_temperature;BMP_pressure;BME280_temperature;BME280_humidity;BME280_pressure;Samples;Min_cycle;Max_cycle;Signal;HPM_P1;HPM_P2
2022/03/04 00:01:16;;;;;;;18.98;10.63;;;;;;;;;;5034018;28;20065;-65
2022/03/04 00:03:42;;;;;;;15.55;9.80;;;;;;;;;;5014993;28;20065;-65
2022/03/04 00:06:08;;;;;;;17.45;10.38;;;;;;;;;;5014169;28;20042;-64
2022/03/04 00:08:34;;;;;;;16.52;10.63;;;;;;;;;;5014471;28;20038;-63
2022/03/04 00:11:02;;;;;;;18.58;10.75;;;;;;;;;;5014910;28;20042;-64
2022/03/04 00:13:30;;;;;;;15.25;9.48;;;;;;;;;;5013667;28;20104;-64
2022/03/04 00:15:56;;;;;;;14.95;9.27;;;;;;;;;;5014914;28;20042;-63
2022/03/04 00:18:22;;;;;;;17.50;10.77;;;;;;;;;;5013901;28;20124;-63
2022/03/04 00:20:48;;;;;;;18.60;11.18;;;;;;;;;;5014177;28;20557;-64
2022/03/04 00:23:15;;;;;;;16.75;9.75;;;;;;;;;;5014969;28;20053;-64
2022/03/04 00:25:41;;;;;;;19.42;10.63;;;;;;;;;;5014326;28;20042;-63
2022/03/04 00:28:07;;;;;;;16.52;10.05;;;;;;;;;;5014779;28;20046;-63
2022/03/04 00:30:33;;;;;;;19.05;10.88;;;;;;;;;;5014528;28;20041;-64
2022/03/04 00:32:59;;;;;;;19.17;10.50;;;;;;;;;;5014367;28;20121;-63
2022/03/04 00:35:26;;;;;;;15.48;9.23;;;;;;;;;;5014045;28;20185;-64
2022/03/04 00:37:52;;;;;;;16.90;9.60;;;;;;;;;;5013343;28;20400;-63
2022/03/04 00:40:20;;;;;;;16.58;10.20;;;;;;;;;;5014327;28;20078;-63
2022/03/04 00:42:46;;;;;;;17.73;10.20;;;;;;;;;;5014677;28;20120;-64
2022/03/04 00:45:12;;;;;;;17.33;9.68;;;;;;;;;;5015248;28;20045;-62
2022/03/04 00:47:38;;;;;;;16.58;9.35;;;;;;;;;;5014805;28;20066;-64
2022/03/04 00:50:05;;;;;;;17.88;10.02;;;;;;;;;;5014344;28;20317;-63
2022/03/04 00:52:31;;;;;;;17.45;9.65;;;;;;;;;;5041773;22;20024;-83
2022/03/04 00:54:58;;;;;;;18.77;9.82;;;;;;;;;;5060938;28;20553;-85
2022/03/04 00:57:24;;;;;;;20.90;10.55;;;;;;;;;;5063542;28;20082;-84
2022/03/04 00:59:50;;;;;;;16.90;10.00;;;;;;;;;;5045691;28;20512;-85
2022/03/04 01:02:16;;;;;;;16.38;10.05;;;;;;;;;;5045577;28;20056;-85
2022/03/04 01:04:42;;;;;;;16.20;10.25;;;;;;;;;;5062295;28;20040;-83
2022/03/04 01:07:08;;;;;;;18.90;10.10;;;;;;;;;;5080636;28;20127;-84
2022/03/04 01:09:35;;;;;;;21.33;10.73;;;;;;;;;;5062211;28;20434;-84
2022/03/04 01:12:01;;;;;;;19.80;10.63;;;;;;;;;;5045011;28;20076;-83
2022/03/04 01:14:27;;;;;;;19.45;10.13;;;;;;;;;;5079527;28;20136;-84
2022/03/04 01:16:53;;;;;;;15.48;9.85;;;;;;;;;;5079829;28;20104;-83
2022/03/04 01:19:19;;;;;;;17.73;10.45;;;;;;;;;;5061744;28;20475;-85
2022/03/04 01:21:45;;;;;;;17.55;9.43;;;;;;;;;;5061402;28;20040;-84
2022/03/04 01:24:11;;;;;;;20.15;11.32;;;;;;;;;;5061618;28;20044;-85
2022/03/04 01:26:37;;;;;;;20.17;11.73;;;;;;;;;;5061702;28;20037;-84
2022/03/04 01:29:04;;;;;;;16.88;10.60;;;;;;;;;;5070995;28;20056;-82
2022/03/04 01:31:30;;;;;;;20.75;11.40;;;;;;;;;;5064002;28;20059;-81
2022/03/04 01:33:56;;;;;;;16.65;10.38;;;;;;;;;;5080897;28;20092;-83
2022/03/04 01:36:22;;;;;;;18.27;11.90;;;;;;;;;;5071179;28;20045;-84
2022/03/04 01:38:48;;;;;;;20.58;11.77;;;;;;;;;;5045572;28;20041;-84
2022/03/04 01:41:14;;;;;;;24.27;13.02;;;;;;;;;;5062035;28;20094;-85
2022/03/04 01:43:40;;;;;;;20.67;11.73;;;;;;;;;;5044983;28;20036;-85
2022/03/04 01:46:16;;;;;;;23.60;12.55;;;;;;;;;;5044649;28;20040;-85
2022/03/04 01:48:43;;;;;;;25.75;12.30;;;;;;;;;;5061544;28;20055;-85
2022/03/04 01:51:09;;;;;;;27.38;14.38;;;;;;;;;;5059055;28;20040;-84
2022/03/04 01:53:36;;;;;;;22.58;12.27;;;;;;;;;;5061215;28;20040;-84
2022/03/04 01:56:02;;;;;;;19.52;10.93;;;;;;;;;;5043931;28;20037;-83
2022/03/04 01:58:28;;;;;;;23.48;12.73;;;;;;;;;;5044444;28;20079;-83
2022/03/04 02:00:54;;;;;;;23.52;12.00;;;;;;;;;;5044442;28;20063;-83
2022/03/04 02:03:20;;;;;;;21.38;12.73;;;;;;;;;;5044185;28;20048;-84
2022/03/04 02:05:46;;;;;;;21.80;12.07;;;;;;;;;;5044098;28;20051;-83
2022/03/04 02:08:12;;;;;;;24.92;12.57;;;;;;;;;;5060615;28;20049;-85
2022/03/04 02:10:38;;;;;;;22.83;13.48;;;;;;;;;;5060725;28;20039;-85
2022/03/04 02:13:04;;;;;;;24.05;12.25;;;;;;;;;;5060547;28;20082;-83
2022/03/04 02:15:31;;;;;;;22.58;12.45;;;;;;;;;;5044971;28;20048;-84
2022/03/04 02:17:57;;;;;;;26.90;12.93;;;;;;;;;;5060693;28;20120;-84
2022/03/04 02:20:23;;;;;;;19.42;11.27;;;;;;;;;;5061117;28;20058;-83
2022/03/04 02:22:52;;;;;;;23.08;12.57;;;;;;;;;;5060500;28;20070;-82
2022/03/04 02:25:18;;;;;;;25.63;12.38;;;;;;;;;;5054210;28;20029;-84
2022/03/04 02:27:44;;;;;;;24.83;12.18;;;;;;;;;;5058910;28;20048;-85
2022/03/04 02:30:10;;;;;;;21.30;11.38;;;;;;;;;;5060297;28;20041;-84
2022/03/04 02:32:36;;;;;;;26.13;13.57;;;;;;;;;;5043806;28;20036;-84
2022/03/04 02:35:03;;;;;;;23.20;11.68;;;;;;;;;;5060919;28;20174;-85
2022/03/04 02:37:29;;;;;;;23.02;13.35;;;;;;;;;;5060759;28;20044;-83
2022/03/04 02:39:55;;;;;;;24.02;13.20;;;;;;;;;;5043579;28;20051;-83
2022/03/04 02:42:22;;;;;;;24.35;13.23;;;;;;;;;;5060507;28;20044;-83
2022/03/04 02:44:48;;;;;;;26.73;14.00;;;;;;;;;;5060360;28;20041;-83
2022/03/04 02:47:14;;;;;;;21.85;12.95;;;;;;;;;;5060573;28;20048;-84
2022/03/04 02:49:40;;;;;;;26.27;12.90;;;;;;;;;;5057803;28;20076;-84
2022/03/04 02:52:06;;;;;;;28.95;14.93;;;;;;;;;;5060280;28;20037;-84
2022/03/04 02:54:33;;;;;;;25.20;14.63;;;;;;;;;;5043951;28;20090;-84
2022/03/04 02:56:58;;;;;;;27.50;14.23;;;;;;;;;;5060575;28;20086;-84
2022/03/04 02:59:25;;;;;;;26.88;14.63;;;;;;;;;;5060178;28;20040;-84
2022/03/04 03:01:51;;;;;;;27.15;14.13;;;;;;;;;;5044334;28;20066;-84
2022/03/04 03:04:18;;;;;;;27.85;14.07;;;;;;;;;;5064623;28;20037;-84
2022/03/04 03:06:44;;;;;;;30.40;14.60;;;;;;;;;;5047813;28;20068;-85
2022/03/04 03:09:10;;;;;;;29.50;14.68;;;;;;;;;;5064687;28;20048;-83
2022/03/04 03:11:36;;;;;;;26.38;14.18;;;;;;;;;;5047803;28;20036;-84
2022/03/04 03:14:02;;;;;;;29.40;14.35;;;;;;;;;;5064580;28;20123;-83
2022/03/04 03:16:28;;;;;;;25.17;13.73;;;;;;;;;;5064486;28;20040;-84
2022/03/04 03:18:55;;;;;;;28.98;14.82;;;;;;;;;;5064598;28;20040;-84
2022/03/04 03:21:21;;;;;;;32.75;15.43;;;;;;;;;;5064173;28;20460;-84
2022/03/04 03:23:47;;;;;;;29.80;15.27;;;;;;;;;;5047622;28;20044;-83
2022/03/04 03:26:13;;;;;;;28.40;15.15;;;;;;;;;;5048164;28;20049;-84
2022/03/04 03:28:39;;;;;;;33.47;16.25;;;;;;;;;;5082472;28;20074;-84
2022/03/04 03:31:05;;;;;;;28.50;13.88;;;;;;;;;;5064962;28;20033;-83
2022/03/04 03:33:31;;;;;;;30.33;15.23;;;;;;;;;;5065551;28;20047;-83
2022/03/04 03:35:57;;;;;;;30.98;15.65;;;;;;;;;;5065097;28;20037;-84
2022/03/04 03:38:24;;;;;;;27.92;15.30;;;;;;;;;;5064957;28;20127;-84
2022/03/04 03:40:50;;;;;;;35.25;17.50;;;;;;;;;;5047681;28;20452;-84
2022/03/04 03:43:16;;;;;;;30.23;16.02;;;;;;;;;;5047623;28;20054;-84
2022/03/04 03:45:42;;;;;;;29.17;16.80;;;;;;;;;;5047613;28;20409;-85
2022/03/04 03:48:08;;;;;;;31.42;15.82;;;;;;;;;;5048002;28;20486;-84
2022/03/04 03:50:34;;;;;;;30.00;15.70;;;;;;;;;;5064409;28;20040;-84
2022/03/04 03:53:00;;;;;;;32.42;17.02;;;;;;;;;;5046585;28;20516;-85
2022/03/04 03:55:26;;;;;;;33.03;16.90;;;;;;;;;;5053852;28;20095;-84
2022/03/04 03:57:53;;;;;;;31.75;16.75;;;;;;;;;;5044008;28;20105;-85
2022/03/04 04:00:19;;;;;;;32.50;16.58;;;;;;;;;;5044532;28;20438;-85
2022/03/04 04:02:45;;;;;;;34.60;16.67;;;;;;;;;;5044113;28;20511;-85
2022/03/04 04:05:12;;;;;;;31.48;16.77;;;;;;;;;;5044436;28;20041;-84
2022/03/04 04:07:38;;;;;;;33.25;16.92;;;;;;;;;;5044192;28;20076;-84
2022/03/04 04:10:07;;;;;;;28.30;15.98;;;;;;;;;;5028197;28;20118;-82
2022/03/04 04:12:36;;;;;;;30.67;16.40;;;;;;;;;;5044559;28;20474;-84
2022/03/04 04:15:02;;;;;;;28.70;15.77;;;;;;;;;;5043372;28;20043;-84
2022/03/04 04:17:28;;;;;;;32.42;17.13;;;;;;;;;;5028083;28;20048;-84
2022/03/04 04:19:54;;;;;;;28.48;15.82;;;;;;;;;;5043936;28;20490;-85
2022/03/04 04:22:21;;;;;;;34.60;17.38;;;;;;;;;;5027075;28;20049;-83
2022/03/04 04:24:47;;;;;;;34.65;16.15;;;;;;;;;;5044849;28;20483;-84
2022/03/04 04:27:13;;;;;;;28.88;16.30;;;;;;;;;;5045463;28;20049;-84
2022/03/04 04:29:39;;;;;;;38.03;17.73;;;;;;;;;;5063010;28;20044;-83
2022/03/04 04:32:05;;;;;;;39.47;18.80;;;;;;;;;;5045021;28;20105;-84
2022/03/04 04:34:31;;;;;;;37.35;17.55;;;;;;;;;;5063332;28;20041;-84
2022/03/04 04:36:57;;;;;;;34.33;17.70;;;;;;;;;;5028551;28;20047;-86
2022/03/04 04:39:23;;;;;;;34.75;17.88;;;;;;;;;;5043044;28;20056;-86
2022/03/04 04:41:49;;;;;;;34.78;17.77;;;;;;;;;;5060466;28;20036;-85
2022/03/04 04:44:16;;;;;;;33.30;16.55;;;;;;;;;;5042741;28;20124;-85
2022/03/04 04:46:42;;;;;;;35.28;16.63;;;;;;;;;;5042923;28;20048;-85
2022/03/04 04:49:08;;;;;;;35.47;17.40;;;;;;;;;;5043440;28;20037;-85
2022/03/04 04:51:36;;;;;;;33.88;18.02;;;;;;;;;;5025914;28;20037;-85
2022/03/04 04:54:03;;;;;;;31.92;16.40;;;;;;;;;;5042732;28;20128;-85
2022/03/04 04:56:29;;;;;;;32.78;17.20;;;;;;;;;;5042469;28;20037;-85
2022/03/04 04:58:55;;;;;;;37.80;18.58;;;;;;;;;;5026132;28;20043;-85
2022/03/04 05:01:21;;;;;;;41.38;18.52;;;;;;;;;;5025864;28;20150;-85
2022/03/04 05:03:47;;;;;;;35.47;17.48;;;;;;;;;;5042503;28;20491;-85
2022/03/04 05:06:13;;;;;;;34.22;18.35;;;;;;;;;;5057083;28;20041;-85
2022/03/04 05:08:39;;;;;;;33.58;17.42;;;;;;;;;;5038568;28;20041;-86
2022/03/04 05:11:05;;;;;;;37.08;18.55;;;;;;;;;;5021630;28;20037;-85
2022/03/04 05:13:31;;;;;;;32.22;17.25;;;;;;;;;;5022053;28;20045;-85
2022/03/04 05:15:57;;;;;;;35.50;17.45;;;;;;;;;;5038973;28;20033;-85
2022/03/04 05:18:23;;;;;;;31.88;16.52;;;;;;;;;;5023078;28;20045;-86
2022/03/04 05:20:49;;;;;;;34.45;17.58;;;;;;;;;;5023353;28;20541;-83
2022/03/04 05:23:58;;;;;;;39.28;18.85;;;;;;;;;;5042716;28;20051;-86
2022/03/04 05:26:01;;;;;;;33.50;17.20;;;;;;;;;;5059608;28;20134;-85
2022/03/04 05:28:27;;;;;;;39.20;19.77;;;;;;;;;;5057316;28;20064;-85
2022/03/04 05:30:53;;;;;;;36.30;18.02;;;;;;;;;;5034872;28;20052;-84
2022/03/04 05:33:19;;;;;;;37.28;18.25;;;;;;;;;;5021607;28;20051;-83
2022/03/04 05:35:45;;;;;;;35.35;18.85;;;;;;;;;;5058789;28;20059;-85
2022/03/04 05:38:11;;;;;;;32.92;18.10;;;;;;;;;;5068715;28;20060;-83
2022/03/04 05:40:37;;;;;;;36.88;18.60;;;;;;;;;;5040821;28;20114;-83
2022/03/04 05:43:03;;;;;;;33.38;17.30;;;;;;;;;;5040670;28;20097;-83
2022/03/04 05:45:29;;;;;;;33.35;17.77;;;;;;;;;;5056835;28;20479;-83
2022/03/04 05:47:55;;;;;;;32.47;16.38;;;;;;;;;;5057245;28;20036;-82
2022/03/04 05:50:21;;;;;;;39.30;20.15;;;;;;;;;;5040342;28;20039;-84
2022/03/04 05:52:47;;;;;;;34.60;17.58;;;;;;;;;;5056779;28;20060;-84
2022/03/04 05:55:13;;;;;;;34.53;18.02;;;;;;;;;;5057713;28;20459;-84
2022/03/04 05:57:39;;;;;;;36.70;17.90;;;;;;;;;;5042028;28;20032;-84
2022/03/04 06:00:06;;;;;;;38.13;19.00;;;;;;;;;;5046295;28;20037;-83
2022/03/04 06:02:32;;;;;;;39.15;19.70;;;;;;;;;;5050794;28;20103;-84
2022/03/04 06:04:59;;;;;;;33.35;16.48;;;;;;;;;;5050147;28;20041;-83
2022/03/04 06:07:25;;;;;;;39.72;20.00;;;;;;;;;;5041461;28;20098;-83
2022/03/04 06:09:51;;;;;;;38.08;20.27;;;;;;;;;;5075652;28;20037;-83
2022/03/04 06:12:17;;;;;;;33.83;18.00;;;;;;;;;;5040985;28;20051;-82
2022/03/04 06:14:43;;;;;;;36.08;19.55;;;;;;;;;;5040892;28;20040;-83
2022/03/04 06:17:09;;;;;;;33.13;18.25;;;;;;;;;;5079021;28;20033;-82
2022/03/04 06:19:35;;;;;;;41.78;20.13;;;;;;;;;;5063257;28;20058;-80
2022/03/04 06:22:01;;;;;;;43.67;20.88;;;;;;;;;;5079459;28;20100;-82
2022/03/04 06:24:28;;;;;;;30.30;17.40;;;;;;;;;;5061218;28;20040;-83
2022/03/04 06:26:54;;;;;;;38.78;18.88;;;;;;;;;;5057546;28;20032;-84
2022/03/04 06:29:20;;;;;;;41.40;20.25;;;;;;;;;;5041240;28;20458;-84
2022/03/04 06:31:46;;;;;;;41.33;21.08;;;;;;;;;;5040280;28;20060;-85
2022/03/04 06:34:12;;;;;;;39.22;18.02;;;;;;;;;;5057694;28;20045;-86
2022/03/04 06:36:38;;;;;;;39.47;20.33;;;;;;;;;;5056810;28;20501;-85
2022/03/04 06:39:04;;;;;;;40.72;20.15;;;;;;;;;;5056400;28;20044;-84
2022/03/04 06:41:30;;;;;;;36.10;17.90;;;;;;;;;;5056375;28;20047;-83
2022/03/04 06:43:56;;;;;;;37.53;19.60;;;;;;;;;;5061208;28;20047;-84
2022/03/04 06:46:23;;;;;;;39.75;19.30;;;;;;;;;;5077454;28;20044;-84
2022/03/04 06:48:49;;;;;;;39.13;18.58;;;;;;;;;;5060374;28;20086;-84
2022/03/04 06:51:15;;;;;;;39.15;20.58;;;;;;;;;;5077711;28;20040;-83
2022/03/04 06:53:41;;;;;;;35.20;18.52;;;;;;;;;;5094653;28;20421;-84
2022/03/04 06:56:07;;;;;;;37.33;18.80;;;;;;;;;;5077320;28;20048;-84
2022/03/04 06:58:33;;;;;;;39.17;19.17;;;;;;;;;;5073592;28;20103;-80
2022/03/04 07:00:59;;;;;;;39.22;19.27;;;;;;;;;;5099344;28;20067;-82
2022/03/04 07:03:25;;;;;;;37.70;19.70;;;;;;;;;;5097194;28;20023;-82
2022/03/04 07:05:51;;;;;;;34.22;18.02;;;;;;;;;;5060816;28;20033;-81
2022/03/04 07:08:17;;;;;;;33.92;18.65;;;;;;;;;;5066210;28;20041;-84
2022/03/04 07:10:44;;;;;;;36.85;18.45;;;;;;;;;;5059056;28;20048;-85
2022/03/04 07:13:10;;;;;;;36.20;19.15;;;;;;;;;;5039947;28;20384;-84
2022/03/04 07:15:36;;;;;;;39.20;20.30;;;;;;;;;;5062445;28;20067;-84
2022/03/04 07:18:02;;;;;;;34.40;18.90;;;;;;;;;;5042598;28;20469;-85
2022/03/04 07:20:29;;;;;;;39.03;20.38;;;;;;;;;;5046926;28;20041;-84
2022/03/04 07:22:55;;;;;;;41.60;20.15;;;;;;;;;;5068056;28;20494;-84
2022/03/04 07:25:21;;;;;;;40.92;19.98;;;;;;;;;;5077260;28;20377;-85
2022/03/04 07:27:47;;;;;;;40.70;19.98;;;;;;;;;;5077363;28;20051;-83
2022/03/04 07:30:14;;;;;;;38.63;20.60;;;;;;;;;;5064597;28;20029;-83
2022/03/04 07:32:41;;;;;;;37.90;19.30;;;;;;;;;;5035123;28;20530;-83
2022/03/04 07:35:08;;;;;;;42.03;20.73;;;;;;;;;;5053220;28;20047;-83
2022/03/04 07:37:35;;;;;;;39.15;20.17;;;;;;;;;;5029315;28;20379;-83
2022/03/04 07:40:01;;;;;;;38.72;20.25;;;;;;;;;;5051823;28;20040;-83
2022/03/04 07:42:27;;;;;;;36.42;18.85;;;;;;;;;;5040535;28;20062;-83
2022/03/04 07:44:53;;;;;;;39.67;20.00;;;;;;;;;;5044791;28;20060;-84
2022/03/04 07:47:19;;;;;;;45.55;21.00;;;;;;;;;;5044883;28;20572;-84
2022/03/04 07:49:46;;;;;;;35.53;18.73;;;;;;;;;;5047691;28;20065;-83
2022/03/04 07:52:12;;;;;;;36.97;19.60;;;;;;;;;;5031478;28;20394;-84
2022/03/04 07:54:38;;;;;;;35.88;19.70;;;;;;;;;;5043676;28;20040;-84
2022/03/04 07:57:04;;;;;;;37.22;21.15;;;;;;;;;;5060938;28;20040;-85
2022/03/04 07:59:30;;;;;;;36.85;20.08;;;;;;;;;;5043895;28;20810;-85
2022/03/04 08:01:56;;;;;;;31.33;18.23;;;;;;;;;;5059950;28;20410;-82
2022/03/04 08:04:22;;;;;;;39.20;20.42;;;;;;;;;;5059198;28;20040;-84
2022/03/04 08:06:48;;;;;;;37.20;20.35;;;;;;;;;;5050809;28;20467;-86
2022/03/04 08:09:14;;;;;;;39.67;21.08;;;;;;;;;;5056289;28;20089;-83
2022/03/04 08:11:40;;;;;;;44.75;21.27;;;;;;;;;;5068480;28;20025;-82
2022/03/04 08:14:06;;;;;;;50.67;23.08;;;;;;;;;;5057601;28;20039;-83
2022/03/04 08:16:33;;;;;;;44.65;23.02;;;;;;;;;;5053857;28;20036;-84
2022/03/04 08:19:03;;;;;;;48.20;22.08;;;;;;;;;;5048870;28;20047;-84
2022/03/04 08:21:29;;;;;;;45.92;23.58;;;;;;;;;;5041446;28;20047;-85
2022/03/04 08:23:55;;;;;;;46.90;22.98;;;;;;;;;;5062764;28;20060;-85
2022/03/04 08:26:21;;;;;;;46.47;21.63;;;;;;;;;;5052021;28;20084;-84
2022/03/04 08:28:47;;;;;;;45.47;23.30;;;;;;;;;;5045421;28;20119;-83
2022/03/04 08:31:14;;;;;;;42.80;22.98;;;;;;;;;;5045693;28;20033;-87
2022/03/04 08:33:47;;;;;;;45.17;22.83;;;;;;;;;;5045549;28;20441;-85
2022/03/04 08:36:13;;;;;;;46.67;22.60;;;;;;;;;;5061535;28;20602;-85
2022/03/04 08:38:42;;;;;;;48.33;23.73;;;;;;;;;;5057193;28;20401;-86
2022/03/04 08:41:09;;;;;;;45.40;22.88;;;;;;;;;;5056979;28;20036;-85
2022/03/04 08:43:35;;;;;;;46.08;23.40;;;;;;;;;;5057171;28;20490;-87
2022/03/04 08:46:04;;;;;;;45.78;22.08;;;;;;;;;;5042643;28;20177;-85
2022/03/04 08:48:30;;;;;;;47.00;24.20;;;;;;;;;;5043188;28;20414;-85
2022/03/04 08:51:01;;;;;;;48.03;25.05;;;;;;;;;;5059734;28;20043;-85
2022/03/04 08:53:30;;;;;;;47.40;23.45;;;;;;;;;;5043207;28;20514;-87
2022/03/04 08:56:25;;;;;;;45.92;22.67;;;;;;;;;;5044397;28;20037;-85
2022/03/04 08:58:58;;;;;;;45.35;21.80;;;;;;;;;;5043097;28;20032;-85
2022/03/04 09:01:40;;;;;;;45.88;22.85;;;;;;;;;;5058697;28;20044;-85
2022/03/04 09:04:33;;;;;;;41.80;21.85;;;;;;;;;;5062138;28;20222;-86
2022/03/04 09:07:06;;;;;;;42.50;22.02;;;;;;;;;;5060931;28;20091;-84
2022/03/04 09:13:24;;;;;;;;;;;;;;;;;;;;;
2022/03/04 09:19:21;;;;;;;42.17;22.13;;;;;;;;;;4977267;28;20046;-86
2022/03/04 09:22:17;;;;;;;39.78;21.63;;;;;;;;;;5042262;28;20470;-85
2022/03/04 09:37:31;;;;;;;43.35;22.23;;;;;;;;;;5052849;28;20042;-86
2022/03/04 09:40:07;;;;;;;46.40;22.10;;;;;;;;;;5042832;28;20040;-87
2022/03/04 09:42:45;;;;;;;46.10;23.35;;;;;;;;;;5042277;28;20052;-85
2022/03/04 09:45:48;;;;;;;;;;;;;;;;;;;;;
2022/03/04 09:48:41;;;;;;;47.42;24.30;;;;;;;;;;4996324;28;20546;-86
2022/03/04 10:02:21;;;;;;;37.03;20.33;;;;;;;;;;4864747;29;20088;-86
2022/03/04 10:08:41;;;;;;;;;;;;;;;;;;;;;
2022/03/04 10:15:53;;;;;;;39.33;20.95;;;;;;;;;;4872715;29;20095;-85
2022/03/04 10:19:24;;;;;;;38.55;20.42;;;;;;;;;;4888728;28;20166;-85
2022/03/04 10:25:56;;;;;;;37.65;22.70;;;;;;;;;;4968518;28;20129;-85
2022/03/04 10:32:47;;;;;;;33.05;18.80;;;;;;;;;;4956698;28;20465;-84
2022/03/04 10:35:41;;;;;;;30.00;18.67;;;;;;;;;;4958501;28;20042;-85
2022/03/04 10:42:24;;;;;;;26.77;19.13;;;;;;;;;;4907504;28;20038;-85
2022/03/04 10:48:38;;;;;;;28.52;19.20;;;;;;;;;;4940084;28;20475;-84
2022/03/04 10:51:38;;;;;;;26.75;19.08;;;;;;;;;;4968398;28;20109;-84
2022/03/04 10:54:26;;;;;;;25.67;17.77;;;;;;;;;;4968776;28;20088;-85
2022/03/04 10:57:13;;;;;;;;;;;;;;;;;;;;;
2022/03/04 11:03:44;;;;;;;24.58;18.38;;;;;;;;;;4916447;29;20611;-85
2022/03/04 11:06:49;;;;;;;;;;;;;;;;;;;;;
2022/03/04 11:13:12;;;;;;;23.80;17.80;;;;;;;;;;4929101;28;20123;-84
2022/03/04 11:16:09;;;;;;;22.05;17.02;;;;;;;;;;5003861;28;20049;-84
2022/03/04 11:19:20;;;;;;;;;;;;;;;;;;;;;
2022/03/04 11:22:31;;;;;;;;;;;;;;;;;;;;;
2022/03/04 11:25:14;;;;;;;;;;;;;;;;;;;;;
2022/03/04 11:32:07;;;;;;;;;;;;;;;;;;;;;
2022/03/04 11:38:28;;;;;;;15.68;13.25;;;;;;;;;;5041493;28;20132;-84
2022/03/04 11:41:48;;;;;;;14.80;12.93;;;;;;;;;;5004799;28;20045;-83
2022/03/04 11:44:46;;;;;;;16.52;13.82;;;;;;;;;;4994315;28;20062;-85
2022/03/04 11:47:49;;;;;;;18.20;14.40;;;;;;;;;;4980045;28;20030;-82
2022/03/04 11:50:41;;;;;;;15.85;14.07;;;;;;;;;;5016353;28;20053;-84
2022/03/04 11:53:35;;;;;;;16.48;12.63;;;;;;;;;;5036357;28;20052;-85
2022/03/04 11:56:49;;;;;;;14.75;12.52;;;;;;;;;;5049418;28;20459;-85
2022/03/04 12:02:36;;;;;;;14.80;12.75;;;;;;;;;;5055571;28;20112;-84
2022/03/04 12:05:45;;;;;;;;;;;;;;;;;;;;;
2022/03/04 12:08:28;;;;;;;14.95;12.18;;;;;;;;;;5047672;28;20025;-85
2022/03/04 12:11:15;;;;;;;14.02;11.68;;;;;;;;;;5061631;28;20053;-81
2022/03/04 12:17:16;;;;;;;13.10;11.55;;;;;;;;;;5072944;28;20036;-86
2022/03/04 12:19:45;;;;;;;14.45;11.75;;;;;;;;;;5043675;28;20029;-86
2022/03/04 12:22:13;;;;;;;14.68;12.40;;;;;;;;;;5030843;28;20067;-87
2022/03/04 12:24:39;;;;;;;16.27;12.40;;;;;;;;;;5038589;28;20041;-87
2022/03/04 12:27:05;;;;;;;14.70;12.27;;;;;;;;;;5047699;28;20024;-85
2022/03/04 12:29:45;;;;;;;14.63;12.07;;;;;;;;;;5053236;28;20111;-82
2022/03/04 12:32:11;;;;;;;13.45;12.05;;;;;;;;;;5048213;28;20044;-87
2022/03/04 12:34:46;;;;;;;15.05;12.30;;;;;;;;;;5083415;28;20036;-87
2022/03/04 12:37:14;;;;;;;13.07;11.32;;;;;;;;;;5034500;28;20040;-86
2022/03/04 12:39:43;;;;;;;13.18;11.77;;;;;;;;;;5037782;28;20036;-86
2022/03/04 12:42:10;;;;;;;13.85;11.55;;;;;;;;;;5034813;28;20116;-86
2022/03/04 12:44:37;;;;;;;13.00;11.60;;;;;;;;;;5061593;28;20087;-87
2022/03/04 12:47:03;;;;;;;13.68;11.73;;;;;;;;;;5050379;28;20060;-87
2022/03/04 12:49:30;;;;;;;14.05;12.25;;;;;;;;;;5050043;28;20504;-87
2022/03/04 12:51:57;;;;;;;13.40;11.63;;;;;;;;;;5063179;28;20043;-88
2022/03/04 12:54:25;;;;;;;13.65;12.10;;;;;;;;;;5063621;28;20040;-87
2022/03/04 12:56:57;;;;;;;13.73;11.70;;;;;;;;;;5048148;28;20051;-90
2022/03/04 12:59:24;;;;;;;16.17;12.98;;;;;;;;;;5063042;28;20040;-84
2022/03/04 13:01:51;;;;;;;15.95;12.57;;;;;;;;;;5080058;28;20079;-82
2022/03/04 13:04:17;;;;;;;15.70;12.98;;;;;;;;;;5080505;28;20066;-84
2022/03/04 13:06:43;;;;;;;14.80;12.68;;;;;;;;;;5081196;28;20032;-83
2022/03/04 13:09:10;;;;;;;16.40;12.55;;;;;;;;;;5078670;28;20608;-85
2022/03/04 13:11:37;;;;;;;14.38;12.07;;;;;;;;;;5061282;28;20051;-86
2022/03/04 13:14:03;;;;;;;15.07;12.80;;;;;;;;;;5060779;28;20098;-86
2022/03/04 13:16:41;;;;;;;14.65;12.90;;;;;;;;;;5044611;28;20089;-86
2022/03/04 13:19:08;;;;;;;14.35;12.30;;;;;;;;;;5044493;28;20607;-85
2022/03/04 13:21:42;;;;;;;14.95;12.63;;;;;;;;;;5052507;28;20077;-84
2022/03/04 13:24:13;;;;;;;15.15;13.55;;;;;;;;;;5064301;28;20391;-88
2022/03/04 13:26:46;;;;;;;15.48;13.15;;;;;;;;;;5042514;28;20028;-85
2022/03/04 13:29:12;;;;;;;;;;;;;;;;;;5065601;28;20047;-85
2022/03/04 13:31:38;;;;;;;17.75;13.88;;;;;;;;;;5040320;28;19924;-86
2022/03/04 13:34:05;;;;;;;16.73;13.82;;;;;;;;;;5061023;28;20479;-85
2022/03/04 13:36:51;;;;;;;16.88;14.18;;;;;;;;;;5059509;28;20095;-84
2022/03/04 13:39:24;;;;;;;16.02;13.85;;;;;;;;;;5065555;28;20035;-85
2022/03/04 13:42:09;;;;;;;14.30;12.55;;;;;;;;;;5079427;28;20118;-85
2022/03/04 13:44:35;;;;;;;14.50;12.63;;;;;;;;;;5042910;28;20067;-85
2022/03/04 13:47:05;;;;;;;14.60;12.43;;;;;;;;;;5057224;28;20120;-85
2022/03/04 13:49:44;;;;;;;16.23;13.98;;;;;;;;;;5050877;28;20454;-85
2022/03/04 13:52:11;;;;;;;16.88;12.65;;;;;;;;;;5039085;28;20557;-85
2022/03/04 13:54:49;;;;;;;14.70;13.10;;;;;;;;;;5039530;28;20041;-84
2022/03/04 13:57:35;;;;;;;14.13;12.63;;;;;;;;;;5042854;28;20154;-84
2022/03/04 14:00:09;;;;;;;14.43;12.90;;;;;;;;;;5055121;28;20074;-84
2022/03/04 14:02:46;;;;;;;15.10;13.43;;;;;;;;;;5039032;28;20075;-85
2022/03/04 14:05:13;;;;;;;14.80;12.90;;;;;;;;;;5041406;28;20036;-85
2022/03/04 14:07:40;;;;;;;16.92;13.23;;;;;;;;;;5042527;28;20115;-87
2022/03/04 14:10:10;;;;;;;15.25;12.85;;;;;;;;;;5057717;28;20045;-83
2022/03/04 14:12:36;;;;;;;13.95;12.13;;;;;;;;;;5059477;28;20051;-82
2022/03/04 14:15:02;;;;;;;13.63;12.23;;;;;;;;;;5070057;28;20041;-84
2022/03/04 14:17:28;;;;;;;14.43;12.48;;;;;;;;;;5039309;28;20423;-86
2022/03/04 14:19:55;;;;;;;14.18;12.23;;;;;;;;;;5022175;28;20143;-85
2022/03/04 14:22:21;;;;;;;13.88;12.07;;;;;;;;;;5070997;28;20094;-83
2022/03/04 14:24:47;;;;;;;13.75;12.32;;;;;;;;;;5058493;28;20052;-85
2022/03/04 14:27:13;;;;;;;14.02;12.52;;;;;;;;;;5059570;28;20040;-84
2022/03/04 14:29:39;;;;;;;14.27;12.32;;;;;;;;;;5072507;28;20072;-84
2022/03/04 14:32:06;;;;;;;14.98;12.40;;;;;;;;;;5038907;28;20040;-85
2022/03/04 14:34:32;;;;;;;15.45;13.18;;;;;;;;;;5047923;28;20055;-85
2022/03/04 14:36:58;;;;;;;14.65;12.95;;;;;;;;;;5043123;28;20036;-85
2022/03/04 14:39:24;;;;;;;14.15;12.63;;;;;;;;;;5051176;28;20040;-84
2022/03/04 14:41:50;;;;;;;14.52;11.70;;;;;;;;;;5042806;28;20037;-84
2022/03/04 14:44:16;;;;;;;13.90;11.70;;;;;;;;;;5047169;28;20037;-85
2022/03/04 14:46:43;;;;;;;13.82;11.90;;;;;;;;;;5052014;28;20044;-86
2022/03/04 14:49:10;;;;;;;14.52;12.05;;;;;;;;;;5043036;28;20033;-84
2022/03/04 14:51:40;;;;;;;14.82;13.23;;;;;;;;;;5057943;28;20064;-83
2022/03/04 14:54:07;;;;;;;15.80;12.73;;;;;;;;;;5036883;28;20124;-85
2022/03/04 14:56:36;;;;;;;16.48;14.25;;;;;;;;;;5041462;28;20087;-84
2022/03/04 14:59:02;;;;;;;15.75;14.00;;;;;;;;;;5057360;28;20124;-84
2022/03/04 15:01:29;;;;;;;17.42;14.15;;;;;;;;;;5049552;28;20044;-84
2022/03/04 15:03:55;;;;;;;16.40;14.32;;;;;;;;;;5057318;28;20036;-84
2022/03/04 15:06:21;;;;;;;16.73;14.40;;;;;;;;;;5036430;28;20470;-85
2022/03/04 15:08:47;;;;;;;17.63;14.63;;;;;;;;;;5032100;28;20434;-85
2022/03/04 15:11:13;;;;;;;17.17;14.93;;;;;;;;;;5054868;28;20037;-86
2022/03/04 15:13:39;;;;;;;17.25;15.25;;;;;;;;;;5060578;28;20028;-86
2022/03/04 15:16:05;;;;;;;17.67;15.05;;;;;;;;;;5048201;28;20072;-85
2022/03/04 15:18:32;;;;;;;16.67;13.65;;;;;;;;;;5050145;28;20418;-85
2022/03/04 15:20:58;;;;;;;16.92;14.27;;;;;;;;;;5035662;28;20066;-84
2022/03/04 15:23:24;;;;;;;15.68;13.60;;;;;;;;;;5049180;28;20037;-85
2022/03/04 15:25:51;;;;;;;20.17;14.48;;;;;;;;;;5051030;28;20068;-85
2022/03/04 15:28:18;;;;;;;18.48;13.85;;;;;;;;;;5034437;28;20036;-85
2022/03/04 15:30:45;;;;;;;15.20;12.30;;;;;;;;;;5033214;28;20045;-85
2022/03/04 15:33:11;;;;;;;15.77;12.32;;;;;;;;;;5031060;28;20032;-83
2022/03/04 15:35:37;;;;;;;17.70;11.95;;;;;;;;;;5062381;28;20044;-84
2022/03/04 15:38:04;;;;;;;14.88;12.05;;;;;;;;;;5056985;28;20040;-84
2022/03/04 15:40:31;;;;;;;14.48;11.30;;;;;;;;;;5079626;28;20100;-85
2022/03/04 15:42:57;;;;;;;13.82;11.55;;;;;;;;;;5066158;28;20036;-85
2022/03/04 15:45:26;;;;;;;15.05;12.10;;;;;;;;;;5067725;28;20037;-86
2022/03/04 15:47:54;;;;;;;15.98;11.93;;;;;;;;;;5049149;28;20055;-85
2022/03/04 15:50:23;;;;;;;14.07;11.52;;;;;;;;;;5055716;28;20521;-84
2022/03/04 15:52:49;;;;;;;14.40;11.02;;;;;;;;;;5061260;28;20032;-85
2022/03/04 15:55:18;;;;;;;14.57;11.45;;;;;;;;;;5062466;28;20051;-84
2022/03/04 15:57:44;;;;;;;13.95;10.40;;;;;;;;;;5045691;28;20045;-85
2022/03/04 16:00:13;;;;;;;14.18;9.60;;;;;;;;;;5047194;28;20044;-83